• Join FlightAware (Why Join?)
  • Login
  • US Flag 
07:21PM EDT


 

Airport Tracker/Info


-or-


 

Live Flight TrackerFlight Track Log ✈ GJS6241 ✈ 16-Apr-2013 ✈ KLGA - KCHO

Flight Track Log - Related Links

Times and Time Zones

All times are in EDT time to prevent confusion due to time zone crossing. See the GJS6241 flight status page for this flight to view local times or setup timezone preferences in your user account.

Time Position Orientation Groundspeed Altitude Reporting Facility
EDT Latitude Longitude Course Direction KTS MPH feet Rate Location/Type
07:46PM 40.7667 -73.8500 114° Southeast 152 175 1,300  Level New York TRACON
07:47PM 40.7500 -73.8000 114° Southeast 207 238 3,800 2,640 Climbing New York TRACON
07:48PM 40.8000 -73.8000 360° North 225 259 6,600 2,940 Climbing New York TRACON
07:49PM 40.8333 -73.8667 303° West 248 285 9,700 2,580 Climbing New York TRACON
07:50PM 40.8500 -73.9500 285° West 263 303 11,800 2,280 Climbing New York TRACON
07:51PM 40.8167 -74.0500 246° West 288 331 14,300 1,560 Climbing New York TRACON
07:52PM 40.7833 -74.1500 246° West 304 350 15,000 300 Climbing New York TRACON
07:53PM 40.7333 -74.2500 237° Southwest 361 415 15,000 1,140 Level New York TRACON
07:55PM 40.6133 -74.4972 237° Southwest 360 414 18,800 1,740 Climbing New York Center
07:56PM 40.5556 -74.6089 236° Southwest 366 421 20,900 2,100 Climbing New York Center
07:57PM 40.4933 -74.7200 234° Southwest 373 429 23,000 2,040 Climbing New York Center
07:58PM 40.4353 -74.8339 236° Southwest 373 429 25,100 2,040 Climbing New York Center
07:59PM 40.3756 -74.9394 233° Southwest 373 429 27,200 1,380 Climbing New York Center
08:00PM 40.3131 -75.0497 233° Southwest 368 423 27,900 600 Climbing New York Center
08:01PM 40.2483 -75.1683 234° Southwest 387 445 28,500 780 Climbing New York Center
08:02PM 40.1811 -75.2917 235° Southwest 408 470 29,500 1,200 Climbing New York Center
08:03PM 40.1097 -75.4119 232° Southwest 421 484 30,900 1,380 Climbing New York Center
08:04PM 40.0325 -75.5206 227° Southwest 421 484 32,300 1,380 Climbing New York Center
08:05PM 39.9531 -75.6289 226° Southwest 421 484 33,700 840 Climbing New York Center
08:06PM 39.8797 -75.7375 229° Southwest 421 484 34,000 -1,320 Climbing New York Center
08:08PM 39.7044 -76.0150 231° Southwest 428 493 29,400 -2,100 Descending Washington Center
08:09PM 39.6311 -76.1358 232° Southwest 433 498 27,000 -2,400 Descending Washington Center
08:10PM 39.5556 -76.2483 229° Southwest 433 498 24,600 -2,400 Descending Washington Center
08:11PM 39.4819 -76.3606 230° Southwest 428 493 22,200 -1,320 Descending Washington Center
08:12PM 39.4125 -76.4672 230° Southwest 428 493 22,000 -120 Descending Washington Center
08:13PM 39.3428 -76.5792 231° Southwest 396 456 22,000  Level Washington Center
08:14PM 39.2650 -76.6800 225° Southwest 401 461 22,000  Level Washington Center
08:15PM 39.2011 -76.8022 236° Southwest 408 470 22,000 -360 Level Washington Center
08:17PM 39.1167 -76.9500 234° Southwest 415 478 21,300 -840 Descending Potomac TRACON
08:18PM 39.0333 -77.0500 223° Southwest 404 465 20,300 -1,680 Descending Potomac TRACON
08:19PM 38.9500 -77.1333 218° Southwest 406 467 18,000 -2,580 Descending Potomac TRACON
08:20PM 38.8667 -77.2333 223° Southwest 362 417 15,100 -2,820 Descending Potomac TRACON
08:21PM 38.8000 -77.3167 224° Southwest 328 377 12,400 -1,140 Descending Potomac TRACON
08:22PM 38.6761 -77.4425 218° Southwest 344 396 12,000 -180 Descending Washington Center
08:23PM 38.6061 -77.5203 221° Southwest 344 396 12,000  Level Washington Center
08:24PM 38.5361 -77.5956 220° Southwest 344 396 12,000  Level Washington Center
08:25PM 38.4639 -77.6706 219° Southwest 338 389 12,000  Level Washington Center
08:26PM 38.3958 -77.7456 221° Southwest 333 383 12,000  Level Washington Center
08:27PM 38.3278 -77.8203 221° Southwest 333 383 12,000 -300 Level Washington Center
08:28PM 38.2658 -77.8897 221° Southwest 308 354 11,500 -1,320 Descending Washington Center
08:29PM 38.2414 -77.9764 250° West 281 323 9,400 -2,100 Descending Washington Center
08:30PM 38.2250 -78.0631 256° West 262 302 7,400 -2,040 Descending Washington Center
08:31PM 38.2250 -78.1556 270° West 257 296 5,400 -1,860 Descending Washington Center
08:32PM 38.2339 -78.2350 278° West 257 296 3,700 -1,320 Descending Washington Center
08:33PM 38.2422 -78.3253 277° West 240 276 2,800 -600 Descending Washington Center
08:34PM 38.2389 -78.3808 266° West 202 232 2,600 -480 Descending Washington Center
08:35PM 38.2089 -78.4167 223° Southwest 151 174 1,900 -660 Descending Washington Center
08:38PM 38.1333 -78.4500 199° South 122 140 600 -600 Descending Potomac TRACON
08:40PM 38.1386 -78.4529 152° Southeast  Level Estimated
08:47PM 38.1333 -78.4500 302° West  Level FlightAware Approximate
08:48PM 38.1386 -78.4529 302° West  Level Estimated
08:49PM 38.1333 -78.4500 302° West  Level FlightAware Approximate
08:50PM 38.1386 -78.4529 302° West  Level Estimated
08:51PM 38.1333 -78.4500 302° West  Level FlightAware Approximate
08:52PM 38.1386 -78.4529 302° West  Level Estimated
08:53PM 38.1333 -78.4500 302° West  Level FlightAware Approximate
08:54PM 38.1386 -78.4529 302° West  Level Estimated
08:55PM 38.1333 -78.4500 302° West  Level FlightAware Approximate
08:56PM 38.1386 -78.4529 302° West  Level Estimated
08:57PM 38.1333 -78.4500 302° West  Level FlightAware Approximate